createdAt,value
2022-10-16T00:04:28.131Z,93.46
2022-10-16T00:09:30.716Z,94.66
2022-10-16T00:14:34.750Z,98.27
2022-10-16T00:19:37.421Z,94.46
2022-10-16T00:24:40.060Z,97.72
2022-10-16T00:29:44.052Z,96.75
2022-10-16T00:34:46.878Z,99.13
2022-10-16T00:39:49.646Z,96.82
2022-10-16T00:44:55.111Z,96.03
2022-10-16T00:50:02.026Z,100.00
2022-10-16T00:55:08.277Z,100.00
2022-10-16T01:00:16.595Z,95.94
2022-10-16T01:05:19.306Z,98.45
2022-10-16T01:10:29.037Z,97.21
2022-10-16T01:20:52.576Z,92.94
2022-10-16T01:26:08.982Z,93.49
2022-10-16T01:31:16.563Z,95.67
2022-10-16T01:36:25.187Z,94.89
2022-10-16T01:41:33.348Z,97.46
2022-10-16T01:46:41.413Z,96.38
2022-10-16T01:51:49.257Z,95.21
2022-10-16T01:56:52.724Z,94.26
2022-10-16T02:02:01.848Z,94.04
2022-10-16T02:07:04.879Z,94.22
2022-10-16T02:12:13.866Z,92.92
2022-10-16T02:17:19.702Z,93.33
2022-10-16T02:22:27.497Z,94.73
2022-10-16T02:27:37.253Z,96.80
2022-10-16T02:32:44.634Z,96.60
2022-10-16T02:37:48.773Z,95.59
2022-10-16T02:42:54.050Z,95.98
2022-10-16T02:47:58.027Z,98.31
2022-10-16T02:53:00.878Z,98.56
2022-10-16T02:58:03.457Z,97.52
2022-10-16T03:03:07.600Z,98.76
2022-10-16T03:08:10.162Z,96.96
2022-10-16T03:13:12.736Z,99.59
2022-10-16T03:18:16.760Z,98.24
2022-10-16T03:23:19.421Z,98.64
2022-10-16T03:28:22.146Z,100.00
2022-10-16T03:33:26.167Z,99.43
2022-10-16T03:38:28.744Z,97.89
2022-10-16T03:43:31.339Z,97.38
2022-10-16T03:48:38.495Z,97.81
2022-10-16T03:53:41.252Z,96.79
2022-10-16T03:58:43.876Z,98.29
2022-10-16T04:03:47.872Z,97.47
2022-10-16T04:08:50.581Z,97.38
2022-10-16T04:13:53.186Z,98.30
2022-10-16T04:18:57.097Z,97.74
2022-10-16T04:23:59.711Z,97.15
2022-10-16T04:29:02.631Z,97.42
2022-10-16T04:34:06.603Z,98.71
2022-10-16T04:39:09.251Z,98.50
2022-10-16T04:44:11.866Z,100.00
2022-10-16T04:49:16.346Z,100.00
2022-10-16T04:54:18.939Z,100.00
2022-10-16T04:59:22.255Z,99.59
2022-10-16T05:04:26.299Z,96.96
2022-10-16T05:09:28.941Z,96.09
2022-10-16T05:14:31.892Z,96.47
2022-10-16T05:19:36.187Z,100.00
2022-10-16T05:24:38.638Z,98.55
2022-10-16T05:29:41.207Z,97.29
2022-10-16T05:34:45.364Z,97.45
2022-10-16T05:39:48.160Z,96.52
2022-10-16T05:44:50.912Z,100.00
2022-10-16T05:49:54.822Z,97.09
2022-10-16T05:54:57.474Z,95.55
2022-10-16T06:00:00.193Z,94.88
2022-10-16T06:05:04.460Z,95.94
2022-10-16T06:10:08.270Z,94.08
2022-10-16T06:15:11.143Z,95.04
2022-10-16T06:20:15.013Z,92.47
2022-10-16T06:25:17.594Z,91.36
2022-10-16T06:30:20.182Z,93.27
2022-10-16T06:35:24.820Z,94.40
2022-10-16T06:40:27.474Z,93.56
2022-10-16T06:45:30.221Z,95.83
2022-10-16T06:50:34.188Z,94.65
2022-10-16T06:55:36.803Z,94.95
2022-10-16T07:00:39.707Z,95.11
2022-10-16T07:05:45.691Z,98.93
2022-10-16T07:10:48.278Z,98.20
2022-10-16T07:15:50.834Z,96.78
2022-10-16T07:20:55.305Z,95.46
2022-10-16T07:25:57.963Z,94.70
2022-10-16T07:31:03.497Z,94.14
2022-10-16T07:36:09.612Z,91.77
2022-10-16T07:41:17.211Z,91.46
2022-10-16T07:46:21.087Z,90.20
2022-10-16T07:51:26.911Z,89.86
2022-10-16T07:56:29.713Z,91.24
2022-10-16T08:01:32.461Z,92.99
2022-10-16T08:06:39.145Z,93.09
2022-10-16T08:11:41.733Z,90.41
2022-10-16T08:16:44.320Z,89.30
2022-10-16T08:21:50.370Z,88.20
2022-10-16T08:26:55.742Z,87.82
2022-10-16T08:31:58.452Z,86.50
2022-10-16T08:37:03.042Z,86.36
2022-10-16T08:42:17.882Z,86.32
2022-10-16T08:47:30.105Z,86.52
2022-10-16T08:52:37.466Z,85.02
2022-10-16T08:57:40.038Z,85.04
2022-10-16T09:02:54.750Z,85.41
2022-10-16T09:08:07.920Z,84.01
2022-10-16T09:13:23.269Z,83.25
2022-10-16T09:18:34.271Z,82.27
2022-10-16T09:23:39.529Z,83.96
2022-10-16T09:28:45.637Z,83.78
2022-10-16T09:33:54.623Z,82.59
2022-10-16T09:39:06.948Z,80.49
2022-10-16T09:44:21.573Z,79.21
2022-10-16T09:49:26.162Z,79.86
2022-10-16T09:54:30.234Z,81.39
2022-10-16T09:59:34.098Z,81.96
2022-10-16T10:04:41.946Z,81.28
2022-10-16T10:09:47.611Z,83.66
2022-10-16T10:14:53.055Z,82.16
2022-10-16T10:19:57.374Z,79.80
2022-10-16T10:25:17.600Z,78.02
2022-10-16T10:30:26.852Z,75.45
2022-10-16T10:35:40.018Z,69.90
2022-10-16T10:40:52.930Z,74.25
2022-10-16T10:45:59.458Z,73.89
2022-10-16T10:51:06.385Z,76.56
2022-10-16T10:56:24.689Z,76.17
2022-10-16T11:01:39.321Z,75.91
2022-10-16T11:06:45.626Z,75.07
2022-10-16T11:11:53.985Z,76.07
2022-10-16T11:17:00.492Z,75.88
2022-10-16T11:22:06.939Z,76.56
2022-10-16T11:27:16.631Z,74.23
2022-10-16T11:32:26.192Z,72.04
2022-10-16T11:37:33.543Z,70.46
2022-10-16T11:42:43.762Z,72.59
2022-10-16T11:47:59.707Z,78.79
2022-10-16T11:53:10.850Z,78.98
2022-10-16T11:58:24.897Z,80.26
2022-10-16T12:03:30.374Z,81.42
2022-10-16T12:08:36.483Z,83.34
2022-10-16T12:13:43.352Z,86.48
2022-10-16T12:18:48.158Z,85.63
2022-10-16T12:23:52.920Z,82.62
2022-10-16T12:28:58.009Z,82.35
2022-10-16T12:34:03.243Z,78.44
2022-10-16T12:39:05.988Z,72.34
2022-10-16T12:44:27.385Z,71.43
2022-10-16T12:49:39.073Z,72.03
2022-10-16T12:54:42.848Z,76.22
2022-10-16T12:59:52.653Z,78.97
2022-10-16T13:05:16.708Z,77.44
2022-10-16T13:10:27.479Z,71.19
2022-10-16T13:15:43.356Z,57.41
2022-10-16T13:21:02.861Z,54.35
2022-10-16T13:26:17.766Z,48.71
2022-10-16T13:31:24.928Z,58.30
2022-10-16T13:36:29.614Z,65.25
2022-10-16T13:41:32.184Z,60.95
2022-10-16T13:46:36.053Z,64.29
2022-10-16T13:51:38.850Z,70.11
2022-10-16T13:56:42.431Z,71.59
2022-10-16T14:01:46.604Z,71.58
2022-10-16T14:06:53.150Z,72.14
2022-10-16T14:12:00.002Z,69.78
2022-10-16T14:17:06.242Z,69.16
2022-10-16T14:22:27.932Z,71.24
2022-10-16T14:27:34.157Z,66.04
2022-10-16T14:32:38.123Z,63.39
2022-10-16T14:37:41.175Z,58.82
2022-10-16T14:42:46.334Z,57.30
2022-10-16T14:47:54.868Z,60.62
2022-10-16T14:52:57.660Z,63.34
2022-10-16T14:58:00.980Z,65.74
2022-10-16T15:03:05.188Z,70.28
2022-10-16T15:08:07.893Z,75.54
2022-10-16T15:13:14.665Z,78.09
2022-10-16T15:18:21.280Z,75.38
2022-10-16T15:28:32.329Z,77.32
2022-10-16T15:33:39.656Z,80.21
2022-10-16T15:38:42.720Z,82.80
2022-10-16T15:43:45.736Z,85.04
2022-10-16T15:48:50.881Z,83.12
2022-10-16T15:53:53.938Z,87.28
2022-10-16T15:58:58.110Z,92.83
2022-10-16T16:04:07.480Z,85.83
2022-10-16T16:09:18.172Z,87.52
2022-10-16T16:14:20.806Z,93.29
2022-10-16T16:19:24.992Z,92.91
2022-10-16T16:24:27.583Z,88.91
2022-10-16T16:29:30.210Z,90.89
2022-10-16T16:34:34.268Z,92.43
2022-10-16T16:39:36.749Z,91.07
2022-10-16T16:44:39.818Z,98.36
2022-10-16T16:49:43.845Z,100.00
2022-10-16T16:54:52.403Z,100.00
2022-10-16T16:59:54.991Z,100.00
2022-10-16T17:04:59.003Z,100.00
2022-10-16T17:10:02.544Z,100.00
2022-10-16T17:15:05.734Z,100.00
2022-10-16T17:20:11.356Z,100.00
2022-10-16T17:25:13.937Z,100.00
2022-10-16T17:30:16.909Z,100.00
2022-10-16T17:35:20.919Z,100.00
2022-10-16T17:40:23.625Z,100.00
2022-10-16T17:45:28.330Z,100.00
2022-10-16T17:50:34.046Z,100.00
2022-10-16T17:55:39.455Z,100.00
2022-10-16T18:00:42.196Z,100.00
2022-10-16T18:05:46.173Z,100.00
2022-10-16T18:10:48.958Z,100.00
2022-10-16T18:16:00.744Z,100.00
2022-10-16T18:21:07.079Z,100.00
2022-10-16T18:26:11.530Z,99.84
2022-10-16T18:31:16.752Z,97.97
2022-10-16T18:36:22.944Z,100.00
2022-10-16T18:41:29.329Z,98.12
2022-10-16T18:46:32.119Z,99.25
2022-10-16T18:51:37.908Z,100.00
2022-10-16T18:56:41.020Z,98.27
2022-10-16T19:01:43.856Z,96.81
2022-10-16T19:06:52.770Z,97.96
2022-10-16T19:11:55.542Z,96.56
2022-10-16T19:16:59.415Z,100.00
2022-10-16T19:22:14.401Z,100.00
2022-10-16T19:27:17.166Z,100.00
2022-10-16T19:32:19.769Z,100.00
2022-10-16T19:37:25.886Z,99.13
2022-10-16T19:42:28.813Z,99.95
2022-10-16T19:47:32.729Z,99.48
2022-10-16T19:52:37.047Z,97.35
2022-10-16T19:57:40.171Z,96.55
2022-10-16T20:02:42.717Z,96.38
2022-10-16T20:07:49.503Z,100.00
2022-10-16T20:12:52.398Z,100.00
2022-10-16T20:17:57.868Z,100.00
2022-10-16T20:23:01.819Z,100.00
2022-10-16T20:28:04.593Z,100.00
2022-10-16T20:33:08.326Z,100.00
2022-10-16T20:38:13.220Z,100.00
2022-10-16T20:43:18.680Z,100.00
2022-10-16T20:48:21.484Z,99.99
2022-10-16T20:53:25.366Z,99.72
2022-10-16T20:58:27.940Z,100.00
2022-10-16T21:03:30.773Z,100.00
2022-10-16T21:08:37.662Z,100.00
2022-10-16T21:13:40.301Z,100.00
2022-10-16T21:18:44.675Z,100.00
2022-10-16T21:23:49.130Z,100.00
2022-10-16T21:28:51.707Z,100.00
2022-10-16T21:33:55.281Z,100.00
2022-10-16T21:39:03.066Z,100.00
2022-10-16T21:44:07.567Z,100.00
2022-10-16T21:49:13.181Z,100.00
2022-10-16T21:54:19.459Z,100.00
2022-10-16T21:59:22.454Z,100.00
2022-10-16T22:04:24.991Z,100.00
2022-10-16T22:09:29.014Z,100.00
2022-10-16T22:14:31.591Z,100.00
2022-10-16T22:19:34.196Z,100.00
2022-10-16T22:24:38.338Z,100.00
2022-10-16T22:29:40.901Z,100.00
2022-10-16T22:34:43.494Z,97.96
2022-10-16T22:39:47.961Z,97.84
2022-10-16T22:44:50.567Z,97.94
2022-10-16T22:49:54.572Z,98.43
2022-10-16T22:54:58.571Z,99.76
2022-10-16T23:00:01.179Z,98.52
2022-10-16T23:05:03.977Z,97.27
2022-10-16T23:10:10.141Z,97.37
2022-10-16T23:15:13.595Z,98.53
2022-10-16T23:20:16.286Z,98.62
2022-10-16T23:25:20.343Z,97.93
2022-10-16T23:30:23.104Z,100.00
2022-10-16T23:35:25.767Z,100.00
2022-10-16T23:40:30.047Z,99.48
2022-10-16T23:45:32.667Z,99.16
2022-10-16T23:50:35.347Z,100.00
2022-10-16T23:55:39.369Z,100.00
